Disclaimer

Please do not use the information listed here in-flight or in-navigation, as they are not provided to us by the airports but are provided by volunteers, so they might be outdated.

Search


Regions


Airport information page

Radio informations:
RDO - 118.85 MHz

Airport informations:
Latitude: 33° 50' 45.39" N
Longitude: 131° 02' 04.88" E
Elevation: 21 feet - 6 meters
Operating hours: N/A
Operating agency: Civil government, landing fees and diplomatic clearance may be required
Timezone: UTC+9
Fuel: N/A

Runway information:
18/36 - 8202 x 260 feet< - >2500 x 79 meters

Recent METARs:
RJFR 190000Z 31007KT 290V010 9999 FEW030 BKN060 BKN150 14/07 Q1019
RJFR 190100Z 31005KT 9999 FEW030 BKN150 16/06 Q1019
RJFR 190100Z 31005KT 9999 FEW030 BKN150 16/06 Q1019

Airport on the map: